createdAt,value
2023-02-15T00:00:26.551Z,3.89
2023-02-15T00:03:18.084Z,3.87
2023-02-15T00:05:46.586Z,3.90
2023-02-15T00:08:14.968Z,3.70
2023-02-15T00:10:43.405Z,3.70
2023-02-15T00:13:11.769Z,3.82
2023-02-15T00:15:40.172Z,3.90
2023-02-15T00:18:08.786Z,3.77
2023-02-15T00:20:37.269Z,3.79
2023-02-15T00:23:05.627Z,3.87
2023-02-15T00:25:34.589Z,3.96
2023-02-15T00:28:03.022Z,3.95
2023-02-15T00:30:32.403Z,3.98
2023-02-15T00:33:00.853Z,3.97
2023-02-15T00:35:29.285Z,3.95
2023-02-15T00:37:57.731Z,3.89
2023-02-15T00:40:26.237Z,3.83
2023-02-15T00:42:54.663Z,3.64
2023-02-15T00:45:23.064Z,3.56
2023-02-15T00:47:51.531Z,3.59
2023-02-15T00:50:21.849Z,3.59
2023-02-15T00:52:52.086Z,3.47
2023-02-15T00:55:22.015Z,3.38
2023-02-15T00:57:51.662Z,3.33
2023-02-15T01:00:20.162Z,3.29
2023-02-15T01:02:48.652Z,3.40
2023-02-15T01:05:17.327Z,3.38
2023-02-15T01:07:45.727Z,3.32
2023-02-15T01:10:14.122Z,3.21
2023-02-15T01:12:42.709Z,3.28
2023-02-15T01:15:11.403Z,3.43
2023-02-15T01:17:39.873Z,3.45
2023-02-15T01:20:09.249Z,3.51
2023-02-15T01:22:37.691Z,3.52
2023-02-15T01:25:06.723Z,3.56
2023-02-15T01:27:35.799Z,3.55
2023-02-15T01:30:05.863Z,3.49
2023-02-15T01:32:34.367Z,3.42
2023-02-15T01:35:04.387Z,3.42
2023-02-15T01:37:34.314Z,3.32
2023-02-15T01:40:06.227Z,3.20
2023-02-15T01:42:35.013Z,3.24
2023-02-15T01:45:19.363Z,3.28
2023-02-15T01:48:06.614Z,3.29
2023-02-15T01:50:42.864Z,3.33
2023-02-15T01:53:17.011Z,3.18
2023-02-15T01:56:08.301Z,3.29
2023-02-15T01:58:38.562Z,3.17
2023-02-15T02:01:09.917Z,3.15
2023-02-15T02:03:57.075Z,3.20
2023-02-15T02:06:27.601Z,3.16
2023-02-15T02:08:57.488Z,3.18
2023-02-15T02:11:28.058Z,3.27
2023-02-15T02:13:57.566Z,3.20
2023-02-15T02:16:44.104Z,3.11
2023-02-15T02:19:40.543Z,3.09
2023-02-15T02:22:33.101Z,3.20
2023-02-15T02:25:19.878Z,3.23
2023-02-15T02:28:17.459Z,3.30
2023-02-15T02:31:12.716Z,3.21
2023-02-15T02:33:49.561Z,3.26
2023-02-15T02:36:26.277Z,3.36
2023-02-15T02:38:56.262Z,3.34
2023-02-15T02:41:44.269Z,3.41
2023-02-15T02:44:26.688Z,3.41
2023-02-15T02:47:04.620Z,3.34
2023-02-15T02:49:37.155Z,3.35
2023-02-15T02:52:09.113Z,3.31
2023-02-15T02:54:37.617Z,3.26
2023-02-15T02:57:10.400Z,3.17
2023-02-15T02:59:46.794Z,3.11
2023-02-15T03:02:23.066Z,3.11
2023-02-15T03:05:04.986Z,3.04
2023-02-15T03:07:37.117Z,2.95
2023-02-15T03:10:08.360Z,2.90
2023-02-15T03:12:41.365Z,2.94
2023-02-15T03:15:20.568Z,2.94
2023-02-15T03:17:57.973Z,2.87
2023-02-15T03:20:33.132Z,2.89
2023-02-15T03:23:08.387Z,2.81
2023-02-15T03:25:45.401Z,2.83
2023-02-15T03:28:23.904Z,2.76
2023-02-15T03:30:57.615Z,2.78
2023-02-15T03:33:29.183Z,2.72
2023-02-15T03:36:09.410Z,2.68
2023-02-15T03:38:44.547Z,2.67
2023-02-15T03:41:15.960Z,2.63
2023-02-15T03:43:56.281Z,2.61
2023-02-15T03:46:31.097Z,2.63
2023-02-15T03:49:13.584Z,2.63
2023-02-15T03:51:47.340Z,2.64
2023-02-15T03:54:41.721Z,2.71
2023-02-15T03:57:42.344Z,2.75
2023-02-15T04:00:32.733Z,2.72
2023-02-15T04:03:16.586Z,2.74
2023-02-15T04:05:46.026Z,2.75
2023-02-15T04:08:14.844Z,2.80
2023-02-15T04:10:57.306Z,2.77
2023-02-15T04:13:32.964Z,2.77
2023-02-15T04:16:05.439Z,2.82
2023-02-15T04:18:55.538Z,2.84
2023-02-15T04:21:44.728Z,2.76
2023-02-15T04:24:32.406Z,2.56
2023-02-15T04:27:02.174Z,2.59
2023-02-15T04:29:30.976Z,2.61
2023-02-15T04:32:02.188Z,2.58
2023-02-15T04:34:30.700Z,2.59
2023-02-15T04:36:59.398Z,2.45
2023-02-15T04:39:27.876Z,2.48
2023-02-15T04:41:56.344Z,2.48
2023-02-15T04:44:24.862Z,2.48
2023-02-15T04:46:53.507Z,2.41
2023-02-15T04:49:21.993Z,2.42
2023-02-15T04:51:50.459Z,2.38
2023-02-15T04:54:18.979Z,2.45
2023-02-15T04:56:48.286Z,2.58
2023-02-15T04:59:16.747Z,2.66
2023-02-15T05:01:45.229Z,2.66
2023-02-15T05:04:14.007Z,2.58
2023-02-15T05:06:42.505Z,2.82
2023-02-15T05:09:12.849Z,2.80
2023-02-15T05:11:41.403Z,2.82
2023-02-15T05:14:10.805Z,3.04
2023-02-15T05:16:39.974Z,3.01
2023-02-15T05:19:08.505Z,2.88
2023-02-15T05:21:37.071Z,3.01
2023-02-15T05:24:25.770Z,3.02
2023-02-15T05:27:12.856Z,3.00
2023-02-15T05:29:41.483Z,2.88
2023-02-15T05:32:10.129Z,2.85
2023-02-15T05:34:38.671Z,2.79
2023-02-15T05:37:09.330Z,2.74
2023-02-15T05:39:37.791Z,2.60
2023-02-15T05:42:06.273Z,2.53
2023-02-15T05:44:34.750Z,2.64
2023-02-15T05:47:04.272Z,2.76
2023-02-15T05:49:32.835Z,2.84
2023-02-15T05:52:01.350Z,2.91
2023-02-15T05:54:30.212Z,3.02
2023-02-15T05:56:58.683Z,2.97
2023-02-15T05:59:27.175Z,2.91
2023-02-15T06:01:55.563Z,3.06
2023-02-15T06:04:24.035Z,3.16
2023-02-15T06:06:52.539Z,3.22
2023-02-15T06:09:21.356Z,3.29
2023-02-15T06:11:49.782Z,3.27
2023-02-15T06:14:18.473Z,3.31
2023-02-15T06:16:46.863Z,3.27
2023-02-15T06:19:15.443Z,3.20
2023-02-15T06:21:43.933Z,3.21
2023-02-15T06:24:12.506Z,3.21
2023-02-15T06:26:40.986Z,3.18
2023-02-15T06:29:09.526Z,3.19
2023-02-15T06:31:38.280Z,3.21
2023-02-15T06:34:07.189Z,3.18
2023-02-15T06:36:35.716Z,3.18
2023-02-15T06:39:05.367Z,3.21
2023-02-15T06:41:33.878Z,3.20
2023-02-15T06:44:02.621Z,3.05
2023-02-15T06:46:31.119Z,2.97
2023-02-15T06:48:59.549Z,3.04
2023-02-15T06:51:28.058Z,3.15
2023-02-15T06:53:56.605Z,3.36
2023-02-15T06:56:25.019Z,3.57
2023-02-15T06:58:54.182Z,3.58
2023-02-15T07:01:22.614Z,3.70
2023-02-15T07:03:51.428Z,3.70
2023-02-15T07:06:19.847Z,3.90
2023-02-15T07:08:48.322Z,3.82
2023-02-15T07:11:35.491Z,3.96
2023-02-15T07:14:04.033Z,4.15
2023-02-15T07:16:32.554Z,4.07
2023-02-15T07:19:01.188Z,4.25
2023-02-15T07:21:29.696Z,4.11
2023-02-15T07:23:58.970Z,4.21
2023-02-15T07:26:28.207Z,4.24
2023-02-15T07:28:56.701Z,4.39
2023-02-15T07:31:25.328Z,4.54
2023-02-15T07:33:53.824Z,4.34
2023-02-15T07:36:22.401Z,4.38
2023-02-15T07:38:51.100Z,4.41
2023-02-15T07:41:20.379Z,4.65
2023-02-15T07:43:49.025Z,4.61
2023-02-15T07:46:19.000Z,4.73
2023-02-15T07:48:48.620Z,4.90
2023-02-15T07:51:17.343Z,5.00
2023-02-15T07:53:48.291Z,5.02
2023-02-15T07:56:17.150Z,5.12
2023-02-15T07:58:55.326Z,5.16
2023-02-15T08:01:27.569Z,5.20
2023-02-15T08:03:56.543Z,5.41
2023-02-15T08:06:27.679Z,5.51
2023-02-15T08:08:56.971Z,5.66
2023-02-15T08:11:40.894Z,5.76
2023-02-15T08:14:21.558Z,5.80
2023-02-15T08:17:00.646Z,6.20
2023-02-15T08:19:33.898Z,6.30
2023-02-15T08:22:08.047Z,6.25
2023-02-15T08:24:38.317Z,6.40
2023-02-15T08:27:09.022Z,6.59
2023-02-15T08:29:38.935Z,6.77
2023-02-15T08:32:10.633Z,6.81
2023-02-15T08:34:42.563Z,6.93
2023-02-15T08:37:11.122Z,6.91
2023-02-15T08:39:39.803Z,7.17
2023-02-15T08:42:08.323Z,7.18
2023-02-15T08:44:36.792Z,6.82
2023-02-15T08:47:05.364Z,7.04
2023-02-15T08:49:35.201Z,7.21
2023-02-15T08:52:04.089Z,7.50
2023-02-15T08:54:32.761Z,7.45
2023-02-15T08:57:01.284Z,7.73
2023-02-15T08:59:29.831Z,7.77
2023-02-15T09:01:58.392Z,7.96
2023-02-15T09:04:26.915Z,7.25
2023-02-15T09:06:56.427Z,7.91
2023-02-15T09:09:24.864Z,8.10
2023-02-15T09:11:58.715Z,8.15
2023-02-15T09:14:28.568Z,8.00
2023-02-15T09:16:57.985Z,8.05
2023-02-15T09:19:26.601Z,8.31
2023-02-15T09:21:55.213Z,8.61
2023-02-15T09:24:23.834Z,8.87
2023-02-15T09:26:52.595Z,8.81
2023-02-15T09:29:21.464Z,8.32
2023-02-15T09:31:52.037Z,8.39
2023-02-15T09:34:23.074Z,8.67
2023-02-15T09:36:52.407Z,8.79
2023-02-15T09:39:26.112Z,8.67
2023-02-15T09:42:34.297Z,8.74
2023-02-15T09:45:08.137Z,9.23
2023-02-15T09:48:07.428Z,9.08
2023-02-15T09:50:46.864Z,9.21
2023-02-15T09:53:18.928Z,9.06
2023-02-15T09:56:08.376Z,8.97
2023-02-15T09:58:51.924Z,9.27
2023-02-15T10:01:42.442Z,9.48
2023-02-15T10:04:20.889Z,9.66
2023-02-15T10:06:49.242Z,10.01
2023-02-15T10:09:29.895Z,9.98
2023-02-15T10:12:24.093Z,10.01
2023-02-15T10:15:16.682Z,9.54
2023-02-15T10:18:02.068Z,9.65
2023-02-15T10:20:30.745Z,9.56
2023-02-15T10:23:30.218Z,9.45
2023-02-15T10:26:27.565Z,9.87
2023-02-15T10:29:03.980Z,10.36
2023-02-15T10:31:41.567Z,9.98
2023-02-15T10:34:38.269Z,10.19
2023-02-15T10:37:39.315Z,10.71
2023-02-15T10:41:05.879Z,10.96
2023-02-15T10:43:45.481Z,11.25
2023-02-15T10:46:14.001Z,10.61
2023-02-15T10:49:05.200Z,10.86
2023-02-15T10:51:55.577Z,10.89
2023-02-15T10:54:30.575Z,10.49
2023-02-15T10:57:10.590Z,10.59
2023-02-15T11:00:10.977Z,10.92
2023-02-15T11:02:55.191Z,10.80
2023-02-15T11:05:45.992Z,11.24
2023-02-15T11:08:14.521Z,11.94
2023-02-15T11:10:42.933Z,11.65
2023-02-15T11:13:20.705Z,11.41
2023-02-15T11:16:03.665Z,11.37
2023-02-15T11:18:32.286Z,11.68
2023-02-15T11:21:04.304Z,11.85
2023-02-15T11:23:36.954Z,11.84
2023-02-15T11:26:14.634Z,11.68
2023-02-15T11:29:00.831Z,12.25
2023-02-15T11:31:56.985Z,12.44
2023-02-15T11:34:38.850Z,12.66
2023-02-15T11:37:17.077Z,13.07
2023-02-15T11:39:45.698Z,13.33
2023-02-15T11:42:22.027Z,12.68
2023-02-15T11:44:53.616Z,12.27
2023-02-15T11:47:22.115Z,12.36
2023-02-15T11:49:50.800Z,12.45
2023-02-15T11:52:20.206Z,12.40
2023-02-15T11:54:51.631Z,12.42
2023-02-15T11:57:39.881Z,13.44
2023-02-15T12:00:14.810Z,13.46
2023-02-15T12:02:49.582Z,13.40
2023-02-15T12:05:23.878Z,13.67
2023-02-15T12:08:05.463Z,13.62
2023-02-15T12:10:42.839Z,13.92
2023-02-15T12:13:19.011Z,13.75
2023-02-15T12:15:51.318Z,14.15
2023-02-15T12:18:40.472Z,14.86
2023-02-15T12:21:14.736Z,15.54
2023-02-15T12:23:51.793Z,15.15
2023-02-15T12:26:32.612Z,15.25
2023-02-15T12:29:08.664Z,16.14
2023-02-15T12:31:51.129Z,16.81
2023-02-15T12:34:26.147Z,15.95
2023-02-15T12:36:59.269Z,16.53
2023-02-15T12:39:34.309Z,16.82
2023-02-15T12:42:16.683Z,16.68
2023-02-15T12:44:55.716Z,16.73
2023-02-15T12:47:28.990Z,16.79
2023-02-15T12:50:24.061Z,17.18
2023-02-15T12:53:15.108Z,17.13
2023-02-15T12:55:59.135Z,17.12
2023-02-15T12:58:31.451Z,17.70
2023-02-15T13:01:13.571Z,17.89
2023-02-15T13:04:04.634Z,17.98
2023-02-15T13:06:36.498Z,18.60
2023-02-15T13:09:33.976Z,18.42
2023-02-15T13:12:24.643Z,18.45
2023-02-15T13:14:56.267Z,18.50
2023-02-15T13:17:45.248Z,18.25
2023-02-15T13:20:25.128Z,19.11
2023-02-15T13:22:59.547Z,19.44
2023-02-15T13:25:33.119Z,20.18
2023-02-15T13:28:05.960Z,18.87
2023-02-15T13:30:39.467Z,18.97
2023-02-15T13:33:36.305Z,20.12
2023-02-15T13:36:21.561Z,19.62
2023-02-15T13:39:09.777Z,19.27
2023-02-15T13:42:06.356Z,18.87
2023-02-15T13:45:04.596Z,20.10
2023-02-15T13:47:49.941Z,20.62
2023-02-15T13:50:36.971Z,20.52
2023-02-15T13:53:08.362Z,18.53
2023-02-15T13:55:49.360Z,18.68
2023-02-15T13:58:52.781Z,19.12
2023-02-15T14:01:49.879Z,19.13
2023-02-15T14:04:42.986Z,19.93
2023-02-15T14:07:20.525Z,19.78
2023-02-15T14:10:28.251Z,19.80
2023-02-15T14:13:02.905Z,19.51
2023-02-15T14:15:50.338Z,18.95
2023-02-15T14:18:27.043Z,19.27
2023-02-15T14:21:19.373Z,18.96
2023-02-15T14:24:02.988Z,19.72
2023-02-15T14:26:44.535Z,19.66
2023-02-15T14:29:42.671Z,19.07
2023-02-15T14:32:22.733Z,17.82
2023-02-15T14:34:58.462Z,17.39
2023-02-15T14:37:41.314Z,15.92
2023-02-15T14:40:49.311Z,15.29
2023-02-15T14:43:42.134Z,14.46
2023-02-15T14:46:33.107Z,14.17
2023-02-15T14:49:12.501Z,13.57
2023-02-15T14:51:44.354Z,13.65
2023-02-15T14:54:35.810Z,13.64
2023-02-15T14:57:04.396Z,13.25
2023-02-15T14:59:38.925Z,13.17
2023-02-15T15:02:07.592Z,12.83
2023-02-15T15:04:54.505Z,12.80
2023-02-15T15:07:25.918Z,12.72
2023-02-15T15:10:03.566Z,12.84
2023-02-15T15:12:35.559Z,13.01
2023-02-15T15:15:05.224Z,12.90
2023-02-15T15:17:39.377Z,12.86
2023-02-15T15:20:35.719Z,12.92
2023-02-15T15:23:16.230Z,12.45
2023-02-15T15:25:49.144Z,12.26
2023-02-15T15:28:36.098Z,12.32
2023-02-15T15:31:23.079Z,12.16
2023-02-15T15:34:13.730Z,12.37
2023-02-15T15:37:02.692Z,11.86
2023-02-15T15:40:12.148Z,11.67
2023-02-15T15:43:06.429Z,11.65
2023-02-15T15:45:44.198Z,11.63
2023-02-15T15:48:37.788Z,11.67
2023-02-15T15:51:30.806Z,11.60
2023-02-15T15:53:59.388Z,11.60
2023-02-15T15:56:32.577Z,11.49
2023-02-15T15:59:08.312Z,11.55
2023-02-15T16:01:42.443Z,11.50
2023-02-15T16:04:25.374Z,11.44
2023-02-15T16:06:54.182Z,11.25
2023-02-15T16:09:25.323Z,11.15
2023-02-15T16:11:59.620Z,11.03
2023-02-15T16:14:40.833Z,10.90
2023-02-15T16:17:24.165Z,10.75
2023-02-15T16:19:55.109Z,10.54
2023-02-15T16:22:27.957Z,10.44
2023-02-15T16:25:14.383Z,10.41
2023-02-15T16:27:48.178Z,10.15
2023-02-15T16:30:24.619Z,10.06
2023-02-15T16:33:18.117Z,10.03
2023-02-15T16:35:58.480Z,9.76
2023-02-15T16:38:45.740Z,9.41
2023-02-15T16:41:17.138Z,9.28
2023-02-15T16:43:48.467Z,9.34
2023-02-15T16:46:28.136Z,9.33
2023-02-15T16:49:02.608Z,9.31
2023-02-15T16:51:34.132Z,9.37
2023-02-15T16:54:15.732Z,9.34
2023-02-15T16:56:47.478Z,9.27
2023-02-15T16:59:45.806Z,9.19
2023-02-15T17:02:40.268Z,9.15
2023-02-15T17:05:18.819Z,9.29
2023-02-15T17:08:05.577Z,9.13
2023-02-15T17:10:43.456Z,9.15
2023-02-15T17:13:17.484Z,8.97
2023-02-15T17:16:06.455Z,8.89
2023-02-15T17:18:45.434Z,8.83
2023-02-15T17:21:29.113Z,8.84
2023-02-15T17:24:05.300Z,8.92
2023-02-15T17:26:39.006Z,8.96
2023-02-15T17:29:32.367Z,8.99
2023-02-15T17:32:03.132Z,9.00
2023-02-15T17:34:50.192Z,9.01
2023-02-15T17:37:33.790Z,8.81
2023-02-15T17:40:15.846Z,8.72
2023-02-15T17:42:44.382Z,8.65
2023-02-15T17:45:15.170Z,8.67
2023-02-15T17:47:44.820Z,8.52
2023-02-15T17:50:34.312Z,8.64
2023-02-15T17:53:02.972Z,8.72
2023-02-15T17:55:40.337Z,8.61
2023-02-15T17:58:14.873Z,8.56
2023-02-15T18:01:14.545Z,8.66
2023-02-15T18:04:10.796Z,8.74
2023-02-15T18:07:00.616Z,8.70
2023-02-15T18:09:47.759Z,8.48
2023-02-15T18:12:33.790Z,8.59
2023-02-15T18:15:03.433Z,8.58
2023-02-15T18:17:42.970Z,8.43
2023-02-15T18:20:27.303Z,8.44
2023-02-15T18:22:55.820Z,8.52
2023-02-15T18:25:27.078Z,8.53
2023-02-15T18:27:55.608Z,8.34
2023-02-15T18:30:28.043Z,8.31
2023-02-15T18:32:58.746Z,8.33
2023-02-15T18:35:32.174Z,8.35
2023-02-15T18:38:02.359Z,8.31
2023-02-15T18:40:31.021Z,8.30
2023-02-15T18:42:59.619Z,8.16
2023-02-15T18:45:33.287Z,8.04
2023-02-15T18:48:02.327Z,8.05
2023-02-15T18:50:34.720Z,8.02
2023-02-15T18:53:07.056Z,7.86
2023-02-15T18:55:35.798Z,7.80
2023-02-15T18:58:04.874Z,7.76
2023-02-15T19:00:35.397Z,7.70
2023-02-15T19:03:03.970Z,7.68
2023-02-15T19:05:33.795Z,7.65
2023-02-15T19:08:03.525Z,7.66
2023-02-15T19:10:34.120Z,7.51
2023-02-15T19:13:02.595Z,7.31
2023-02-15T19:15:32.126Z,7.16
2023-02-15T19:18:00.636Z,7.11
2023-02-15T19:20:37.392Z,7.06
2023-02-15T19:23:19.291Z,7.05
2023-02-15T19:25:50.006Z,6.78
2023-02-15T19:28:33.865Z,6.72
2023-02-15T19:31:02.469Z,6.81
2023-02-15T19:33:31.275Z,6.50
2023-02-15T19:35:59.802Z,6.51
2023-02-15T19:38:32.886Z,6.53
2023-02-15T19:41:06.356Z,6.44
2023-02-15T19:43:36.167Z,6.60
2023-02-15T19:46:05.236Z,6.74
2023-02-15T19:48:34.075Z,6.80
2023-02-15T19:51:03.955Z,6.80
2023-02-15T19:53:32.579Z,6.71
2023-02-15T19:56:01.186Z,6.75
2023-02-15T19:58:30.331Z,6.71
2023-02-15T20:00:58.781Z,6.66
2023-02-15T20:03:27.226Z,6.52
2023-02-15T20:05:55.860Z,6.58
2023-02-15T20:08:24.575Z,6.67
2023-02-15T20:10:53.167Z,6.66
2023-02-15T20:13:21.806Z,6.60
2023-02-15T20:15:52.096Z,6.55
2023-02-15T20:18:22.580Z,6.61
2023-02-15T20:20:54.636Z,6.61
2023-02-15T20:23:30.621Z,6.64
2023-02-15T20:26:02.392Z,6.72
2023-02-15T20:28:32.083Z,6.51
2023-02-15T20:31:00.784Z,6.37
2023-02-15T20:33:29.559Z,6.36
2023-02-15T20:35:59.841Z,6.24
2023-02-15T20:38:31.309Z,6.23
2023-02-15T20:41:19.844Z,6.27
2023-02-15T20:43:48.854Z,6.34
2023-02-15T20:46:17.374Z,6.24
2023-02-15T20:48:45.830Z,6.21
2023-02-15T20:51:19.416Z,6.15
2023-02-15T20:53:48.547Z,6.18
2023-02-15T20:56:22.832Z,6.05
2023-02-15T20:58:53.069Z,5.89
2023-02-15T21:01:21.699Z,5.83
2023-02-15T21:03:50.408Z,5.86
2023-02-15T21:06:18.945Z,5.86
2023-02-15T21:08:47.387Z,5.77
2023-02-15T21:11:23.329Z,5.67
2023-02-15T21:13:51.884Z,5.80
2023-02-15T21:16:20.746Z,5.80
2023-02-15T21:18:49.609Z,5.64
2023-02-15T21:21:23.970Z,5.58
2023-02-15T21:23:54.085Z,5.61
2023-02-15T21:26:23.636Z,5.69
2023-02-15T21:28:52.422Z,5.71
2023-02-15T21:31:24.114Z,5.73
2023-02-15T21:33:52.936Z,5.76
2023-02-15T21:36:25.563Z,5.72
2023-02-15T21:38:54.095Z,5.67
2023-02-15T21:41:43.305Z,5.66
2023-02-15T21:44:42.138Z,5.64
2023-02-15T21:47:45.501Z,5.54
2023-02-15T21:50:40.572Z,5.26
2023-02-15T21:53:20.129Z,5.19
2023-02-15T21:55:49.257Z,5.13
2023-02-15T21:58:24.884Z,5.19
2023-02-15T22:00:57.850Z,4.96
2023-02-15T22:03:38.347Z,4.99
2023-02-15T22:06:06.967Z,4.92
2023-02-15T22:08:35.526Z,4.95
2023-02-15T22:11:09.074Z,4.95
2023-02-15T22:13:38.384Z,5.13
2023-02-15T22:16:07.300Z,5.16
2023-02-15T22:18:35.938Z,5.18
2023-02-15T22:21:04.841Z,5.26
2023-02-15T22:23:33.746Z,5.40
2023-02-15T22:26:12.579Z,5.28
2023-02-15T22:28:42.828Z,5.27
2023-02-15T22:31:14.626Z,5.15
2023-02-15T22:33:45.012Z,5.09
2023-02-15T22:36:26.346Z,5.03
2023-02-15T22:38:55.531Z,5.19
2023-02-15T22:41:27.871Z,5.26
2023-02-15T22:43:57.110Z,5.25
2023-02-15T22:46:26.421Z,5.19
2023-02-15T22:48:55.081Z,4.75
2023-02-15T22:51:25.107Z,4.62
2023-02-15T22:53:54.051Z,4.62
2023-02-15T22:56:32.624Z,4.66
2023-02-15T22:59:04.700Z,4.85
2023-02-15T23:01:36.326Z,5.02
2023-02-15T23:04:05.086Z,5.08
2023-02-15T23:06:34.850Z,5.05
2023-02-15T23:09:03.526Z,5.01
2023-02-15T23:11:32.037Z,4.93
2023-02-15T23:14:03.363Z,4.93
2023-02-15T23:16:32.734Z,4.87
2023-02-15T23:19:01.431Z,4.83
2023-02-15T23:21:34.388Z,4.79
2023-02-15T23:24:20.252Z,4.88
2023-02-15T23:26:51.111Z,4.84
2023-02-15T23:29:22.489Z,4.99
2023-02-15T23:31:54.902Z,5.01
2023-02-15T23:34:31.849Z,4.86
2023-02-15T23:37:00.562Z,4.84
2023-02-15T23:39:47.694Z,4.84
2023-02-15T23:42:20.385Z,4.83
2023-02-15T23:44:49.465Z,4.78
2023-02-15T23:47:42.181Z,4.90
2023-02-15T23:50:23.852Z,4.89
2023-02-15T23:52:54.362Z,4.98
2023-02-15T23:55:24.614Z,5.04
2023-02-15T23:57:54.103Z,5.07
